Ram Xvii — WDE2105 — position and weather

sailwx.info

Track history (hours):
 
Tides and Currents Weather Stations Pressure Air Temp Water Temp Dewpoint Dewpoint Depression Visibility Wind Speed Wind Dir Waves Ship Positions

Ram Xvii

Owner: Aries Marine Corporation - M/V Ram XVII, Lafayette, LA. More information available from US FCC via Universal Licensing System and Coast Guard Vessel Documentation Center.

Last reported at 2017-Nov-10 16:05 UTC. Time now 2017-Nov-22 14:45 UTC.
Position N 29°36' W 092°18'.
Warning: this ship's position is 11 days out of date.

Type: Other ship. MMSI: 367320990.

Date/timePositionNaut miles runAvg speedWind from/ knotsBaromVisibWave heightAir tempDewpointWater temp
2017-Nov-10 16:05N 29°36' W 092°18'1 7.4
2017-Nov-10 16:00N 29°36' W 092°17'3 5.4
2017-Nov-10 15:30N 29°39' W 092°16'4 7.5
2017-Nov-10 15:00N 29°42' W 092°15'3 7.1
2017-Nov-10 14:31N 29°45' W 092°13'3 6.8
2017-Nov-10 14:01N 29°47' W 092°09'1 1.5
2017-Nov-10 13:29N 29°47' W 092°09'0 0.0
2017-Nov-10 12:59N 29°47' W 092°09'0 0.0
2017-Nov-10 12:29N 29°47' W 092°09'0 0.0
2017-Nov-10 11:59N 29°47' W 092°09'0 0.0
2017-Nov-10 11:29N 29°47' W 092°09'0 0.0
2017-Nov-10 10:59N 29°47' W 092°09'0 0.2
2017-Nov-10 10:24N 29°47' W 092°09'0 0.0
2017-Nov-10 10:00N 29°47' W 092°09'0 0.0
2017-Nov-10 09:30N 29°47' W 092°09'0 0.0
2017-Nov-10 09:00N 29°47' W 092°09'0 0.0
2017-Nov-10 08:30N 29°47' W 092°09'0 0.0
2017-Nov-10 08:00N 29°47' W 092°09'0 0.0
2017-Nov-10 07:30N 29°47' W 092°09'0 0.0
2017-Nov-10 07:00N 29°47' W 092°09'0 0.0
2017-Nov-10 06:30N 29°47' W 092°09'0 0.0
2017-Nov-10 06:00N 29°47' W 092°09'0 0.0
2017-Nov-10 05:30N 29°47' W 092°09'0 0.0
2017-Nov-10 05:00N 29°47' W 092°09'0 0.0
2017-Nov-10 04:30N 29°47' W 092°09'0 0.0
2017-Nov-10 04:00N 29°47' W 092°09'0 0.0
2017-Nov-10 03:30N 29°47' W 092°09'0 0.0
2017-Nov-10 03:00N 29°47' W 092°09'0 0.0
2017-Nov-10 02:30N 29°47' W 092°09'0 0.0
2017-Nov-10 02:00N 29°47' W 092°09'1 1.4
2017-Nov-10 01:30N 29°47' W 092°09'1 2.7
2017-Nov-10 00:58N 29°47' W 092°11'0 0.0
2017-Nov-10 00:28N 29°47' W 092°11'1 1.9
2017-Nov-10 00:00N 29°47' W 092°10'3 6.1
2017-Nov-09 23:30N 29°48' W 092°06'3 6.2
2017-Nov-09 23:00N 29°49' W 092°03'3 6.1
2017-Nov-09 22:30N 29°50' W 091°60'3 6.3
2017-Nov-09 22:00N 29°51' W 091°56'  
Track history (hours):
 
Tides and Currents Weather Stations Pressure Air Temp Water Temp Dewpoint Dewpoint Depression Visibility Wind Speed Wind Dir Waves Ship Positions

Ram Xvii

Owner: Aries Marine Corporation - M/V Ram XVII, Lafayette, LA. More information available from US FCC via Universal Licensing System and Coast Guard Vessel Documentation Center.

Last reported at 2017-Nov-10 16:05 UTC. Time now 2017-Nov-22 14:45 UTC.
Position N 29°36' W 092°18'.
Warning: this ship's position is 11 days out of date.

Type: Other ship. MMSI: 367320990.

Date/timePositionNaut miles runAvg speedWind from/ knotsBaromVisibWave heightAir tempDewpointWater temp
2017-Nov-10 16:05N 29°36' W 092°18'1 7.4
2017-Nov-10 16:00N 29°36' W 092°17'3 5.4
2017-Nov-10 15:30N 29°39' W 092°16'4 7.5
2017-Nov-10 15:00N 29°42' W 092°15'3 7.1
2017-Nov-10 14:31N 29°45' W 092°13'3 6.8
2017-Nov-10 14:01N 29°47' W 092°09'1 1.5
2017-Nov-10 13:29N 29°47' W 092°09'0 0.0
2017-Nov-10 12:59N 29°47' W 092°09'0 0.0
2017-Nov-10 12:29N 29°47' W 092°09'0 0.0
2017-Nov-10 11:59N 29°47' W 092°09'0 0.0
2017-Nov-10 11:29N 29°47' W 092°09'0 0.0
2017-Nov-10 10:59N 29°47' W 092°09'0 0.2
2017-Nov-10 10:24N 29°47' W 092°09'0 0.0
2017-Nov-10 10:00N 29°47' W 092°09'0 0.0
2017-Nov-10 09:30N 29°47' W 092°09'0 0.0
2017-Nov-10 09:00N 29°47' W 092°09'0 0.0
2017-Nov-10 08:30N 29°47' W 092°09'0 0.0
2017-Nov-10 08:00N 29°47' W 092°09'0 0.0
2017-Nov-10 07:30N 29°47' W 092°09'0 0.0
2017-Nov-10 07:00N 29°47' W 092°09'0 0.0
2017-Nov-10 06:30N 29°47' W 092°09'0 0.0
2017-Nov-10 06:00N 29°47' W 092°09'0 0.0
2017-Nov-10 05:30N 29°47' W 092°09'0 0.0
2017-Nov-10 05:00N 29°47' W 092°09'0 0.0
2017-Nov-10 04:30N 29°47' W 092°09'0 0.0
2017-Nov-10 04:00N 29°47' W 092°09'0 0.0
2017-Nov-10 03:30N 29°47' W 092°09'0 0.0
2017-Nov-10 03:00N 29°47' W 092°09'0 0.0
2017-Nov-10 02:30N 29°47' W 092°09'0 0.0
2017-Nov-10 02:00N 29°47' W 092°09'1 1.4
2017-Nov-10 01:30N 29°47' W 092°09'1 2.7
2017-Nov-10 00:58N 29°47' W 092°11'0 0.0
2017-Nov-10 00:28N 29°47' W 092°11'1 1.9
2017-Nov-10 00:00N 29°47' W 092°10'3 6.1
2017-Nov-09 23:30N 29°48' W 092°06'3 6.2
2017-Nov-09 23:00N 29°49' W 092°03'3 6.1
2017-Nov-09 22:30N 29°50' W 091°60'3 6.3
2017-Nov-09 22:00N 29°51' W 091°56'  

Dump ship's entire track history